CFAVM CYHU-KSWF
Flight info
| Callsign | CFAVM |
|---|---|
| Flight time | N/A |
| Altitude | 8000 |
| Route | FAWNS DCT BUGSY DCT ALB V123 TRESA TRESA1 |
| Aircraft | PA28/L-SDGRY/S |
Departure
| Time | 2026-04-23 00:58 |
|---|---|
| Airport | Montréal / Saint-Hubert Metropolitan Airport (CYHU) |
Arrival
| Time | N/A |
|---|---|
| Airport | New York Stewart International Airport (KSWF) |
| Time | Latitude | Longitude | Altitude | Speed | Heading |
|---|---|---|---|---|---|
| 2026-04-23 00:40 | 45.52838 | -73.40773 | 88 ft | 0 kts | 294° |
| 2026-04-23 00:54 | 45.52846 | -73.40775 | 89 ft | 1 kts | 52° |
| 2026-04-23 00:55 | 45.52830 | -73.40739 | 90 ft | 7 kts | 146° |
| 2026-04-23 00:55 | 45.52783 | -73.40719 | 88 ft | 7 kts | 171° |
| 2026-04-23 00:55 | 45.52739 | -73.40708 | 88 ft | 4 kts | 171° |
| 2026-04-23 00:55 | 45.52729 | -73.40709 | 88 ft | 3 kts | 217° |
| 2026-04-23 00:56 | 45.52727 | -73.40711 | 88 ft | 0 kts | 220° |
| 2026-04-23 00:56 | 45.52689 | -73.40717 | 89 ft | 6 kts | 192° |
| 2026-04-23 00:56 | 45.52653 | -73.40727 | 92 ft | 7 kts | 189° |
| 2026-04-23 00:56 | 45.52584 | -73.40742 | 92 ft | 6 kts | 188° |
| 2026-04-23 00:57 | 45.52545 | -73.40750 | 92 ft | 8 kts | 187° |
| 2026-04-23 00:57 | 45.52477 | -73.40782 | 91 ft | 12 kts | 226° |
| 2026-04-23 00:57 | 45.52275 | -73.41091 | 92 ft | 73 kts | 227° |
| 2026-04-23 00:57 | 45.51894 | -73.41679 | 312 ft | 88 kts | 226° |
| 2026-04-23 00:58 | 45.51467 | -73.42329 | 660 ft | 88 kts | 226° |
| 2026-04-23 00:58 | 45.51038 | -73.42980 | 982 ft | 94 kts | 226° |
| 2026-04-23 00:58 | 45.50598 | -73.43681 | 1294 ft | 97 kts | 230° |
| 2026-04-23 00:58 | 45.50148 | -73.44437 | 1622 ft | 100 kts | 229° |
| 2026-04-23 00:59 | 45.49667 | -73.45167 | 1907 ft | 105 kts | 223° |
| 2026-04-23 00:59 | 45.49158 | -73.46005 | 2060 ft | 120 kts | 234° |
| 2026-04-23 00:59 | 45.48671 | -73.47014 | 2255 ft | 126 kts | 236° |
| 2026-04-23 00:59 | 45.48041 | -73.47867 | 2432 ft | 129 kts | 200° |
| 2026-04-23 01:00 | 45.47219 | -73.48364 | 2625 ft | 130 kts | 216° |
| 2026-04-23 01:00 | 45.46523 | -73.49189 | 2826 ft | 131 kts | 221° |
| 2026-04-23 01:00 | 45.45837 | -73.50044 | 3028 ft | 131 kts | 221° |
| 2026-04-23 01:00 | 45.45154 | -73.50911 | 3227 ft | 132 kts | 222° |
| 2026-04-23 01:01 | 45.44472 | -73.51784 | 3427 ft | 132 kts | 222° |
| 2026-04-23 01:01 | 45.43789 | -73.52658 | 3626 ft | 132 kts | 222° |
| 2026-04-23 01:01 | 45.43108 | -73.53531 | 3826 ft | 132 kts | 222° |
| 2026-04-23 01:01 | 45.42428 | -73.54402 | 4024 ft | 131 kts | 222° |
| 2026-04-23 01:02 | 45.41750 | -73.55270 | 4223 ft | 131 kts | 222° |
| 2026-04-23 01:02 | 45.41074 | -73.56136 | 4422 ft | 131 kts | 222° |
| 2026-04-23 01:02 | 45.40400 | -73.56999 | 4618 ft | 130 kts | 222° |
| 2026-04-23 01:02 | 45.39728 | -73.57860 | 4823 ft | 130 kts | 222° |
| 2026-04-23 01:03 | 45.39058 | -73.58716 | 5017 ft | 129 kts | 222° |
| 2026-04-23 01:03 | 45.38392 | -73.59568 | 5216 ft | 129 kts | 222° |
| 2026-04-23 01:03 | 45.37735 | -73.60409 | 5545 ft | 128 kts | 229° |
| 2026-04-23 01:03 | 45.37076 | -73.61252 | 5755 ft | 127 kts | 231° |
| 2026-04-23 01:04 | 45.36420 | -73.62089 | 5961 ft | 126 kts | 231° |
| 2026-04-23 01:04 | 45.35767 | -73.62922 | 6167 ft | 126 kts | 231° |
| 2026-04-23 01:04 | 45.34464 | -73.64587 | 6573 ft | 125 kts | 232° |
| 2026-04-23 01:05 | 45.33819 | -73.65409 | 6770 ft | 124 kts | 232° |
| 2026-04-23 01:05 | 45.33178 | -73.66227 | 6968 ft | 123 kts | 232° |
| 2026-04-23 01:05 | 45.32540 | -73.67040 | 7166 ft | 123 kts | 233° |
| 2026-04-23 01:05 | 45.31907 | -73.67846 | 7368 ft | 122 kts | 233° |
| 2026-04-23 01:06 | 45.31279 | -73.68647 | 7570 ft | 120 kts | 233° |
| 2026-04-23 01:06 | 45.30659 | -73.69435 | 7772 ft | 119 kts | 233° |
| 2026-04-23 01:06 | 45.30049 | -73.70213 | 7971 ft | 117 kts | 234° |
| 2026-04-23 01:06 | 45.29417 | -73.71027 | 8000 ft | 128 kts | 233° |
| 2026-04-23 01:07 | 45.28735 | -73.71900 | 8011 ft | 136 kts | 232° |
| 2026-04-23 01:07 | 45.28020 | -73.72808 | 8011 ft | 140 kts | 232° |
| 2026-04-23 01:07 | 45.27286 | -73.73740 | 8011 ft | 143 kts | 232° |
| 2026-04-23 01:07 | 45.26538 | -73.74690 | 8008 ft | 145 kts | 232° |
| 2026-04-23 01:08 | 45.25781 | -73.75651 | 8008 ft | 146 kts | 231° |
| 2026-04-23 01:08 | 45.25023 | -73.76613 | 8008 ft | 147 kts | 231° |
| 2026-04-23 01:08 | 45.24262 | -73.77578 | 8008 ft | 146 kts | 232° |
| 2026-04-23 01:08 | 45.23503 | -73.78543 | 8007 ft | 147 kts | 232° |
| 2026-04-23 01:09 | 45.22742 | -73.79508 | 8005 ft | 147 kts | 231° |
| 2026-04-23 01:09 | 45.21979 | -73.80476 | 8006 ft | 147 kts | 231° |
| 2026-04-23 01:09 | 45.21219 | -73.81441 | 8005 ft | 147 kts | 231° |
| 2026-04-23 01:09 | 45.20457 | -73.82406 | 7998 ft | 147 kts | 232° |
| 2026-04-23 01:10 | 45.19695 | -73.83373 | 7998 ft | 147 kts | 231° |
| 2026-04-23 01:10 | 45.18933 | -73.84338 | 7997 ft | 147 kts | 232° |
| 2026-04-23 01:10 | 45.18171 | -73.85304 | 7998 ft | 147 kts | 232° |
| 2026-04-23 01:10 | 45.17409 | -73.86268 | 7997 ft | 147 kts | 231° |
| 2026-04-23 01:11 | 45.16647 | -73.87232 | 7999 ft | 147 kts | 231° |
| 2026-04-23 01:11 | 45.15895 | -73.88184 | 7998 ft | 147 kts | 232° |
| 2026-04-23 01:11 | 45.15133 | -73.89146 | 7998 ft | 147 kts | 232° |
| 2026-04-23 01:11 | 45.14372 | -73.90109 | 7998 ft | 147 kts | 232° |
| 2026-04-23 01:12 | 45.13600 | -73.91085 | 7999 ft | 147 kts | 232° |
| 2026-04-23 01:12 | 45.12848 | -73.92034 | 7999 ft | 147 kts | 231° |
| 2026-04-23 01:12 | 45.12088 | -73.92993 | 7998 ft | 146 kts | 232° |
| 2026-04-23 01:12 | 45.11330 | -73.93951 | 7997 ft | 146 kts | 232° |
| 2026-04-23 01:13 | 45.10565 | -73.94915 | 7992 ft | 145 kts | 232° |
| 2026-04-23 01:13 | 45.09814 | -73.95863 | 7991 ft | 145 kts | 232° |
| 2026-04-23 01:13 | 45.09072 | -73.96798 | 7990 ft | 145 kts | 232° |
| 2026-04-23 01:13 | 45.08321 | -73.97745 | 7990 ft | 145 kts | 232° |
| 2026-04-23 01:14 | 45.07569 | -73.98693 | 7992 ft | 145 kts | 232° |
| 2026-04-23 01:14 | 45.06818 | -73.99638 | 7991 ft | 144 kts | 232° |
| 2026-04-23 01:14 | 45.06068 | -74.00582 | 7991 ft | 144 kts | 232° |
| 2026-04-23 01:14 | 45.05318 | -74.01527 | 7990 ft | 144 kts | 232° |
| 2026-04-23 01:15 | 45.04571 | -74.02466 | 7991 ft | 144 kts | 232° |
| 2026-04-23 01:15 | 45.03826 | -74.03403 | 7990 ft | 142 kts | 231° |
| 2026-04-23 01:15 | 45.03087 | -74.04332 | 7984 ft | 142 kts | 231° |
| 2026-04-23 01:15 | 45.02351 | -74.05256 | 7983 ft | 141 kts | 231° |
| 2026-04-23 01:16 | 45.01619 | -74.06176 | 7988 ft | 141 kts | 231° |
| 2026-04-23 01:16 | 45.01125 | -74.06797 | 7987 ft | 141 kts | 231° |
| 2026-04-23 01:16 | 45.00403 | -74.07704 | 7985 ft | 140 kts | 231° |
| 2026-04-23 01:16 | 44.99674 | -74.08616 | 7984 ft | 140 kts | 230° |
| 2026-04-23 01:17 | 44.98757 | -74.09178 | 7985 ft | 152 kts | 197° |
| 2026-04-23 01:17 | 44.97703 | -74.09353 | 7985 ft | 152 kts | 195° |
| 2026-04-23 01:17 | 44.96651 | -74.09544 | 7986 ft | 153 kts | 196° |
| 2026-04-23 01:17 | 44.95595 | -74.09743 | 7987 ft | 153 kts | 196° |
| 2026-04-23 01:18 | 44.94535 | -74.09944 | 7984 ft | 154 kts | 196° |
| 2026-04-23 01:18 | 44.93472 | -74.10145 | 7986 ft | 155 kts | 196° |
| 2026-04-23 01:18 | 44.92402 | -74.10347 | 7987 ft | 155 kts | 196° |
| 2026-04-23 01:18 | 44.91328 | -74.10550 | 7994 ft | 156 kts | 196° |
| 2026-04-23 01:19 | 44.90251 | -74.10754 | 7998 ft | 157 kts | 195° |
| 2026-04-23 01:19 | 44.89165 | -74.10959 | 8002 ft | 158 kts | 195° |
| 2026-04-23 01:19 | 44.88077 | -74.11165 | 8000 ft | 158 kts | 195° |
| 2026-04-23 01:19 | 44.86981 | -74.11372 | 8007 ft | 159 kts | 195° |
| 2026-04-23 01:20 | 44.85884 | -74.11578 | 8004 ft | 160 kts | 195° |
| 2026-04-23 01:20 | 44.84780 | -74.11787 | 8001 ft | 160 kts | 195° |
| 2026-04-23 01:20 | 44.83670 | -74.11996 | 8003 ft | 161 kts | 195° |
| 2026-04-23 01:20 | 44.82560 | -74.12205 | 7999 ft | 161 kts | 195° |
| 2026-04-23 01:21 | 44.81450 | -74.12414 | 8003 ft | 161 kts | 195° |
| 2026-04-23 01:21 | 44.80342 | -74.12622 | 8005 ft | 160 kts | 195° |
| 2026-04-23 01:21 | 44.79234 | -74.12831 | 8005 ft | 161 kts | 195° |
| 2026-04-23 01:21 | 44.78123 | -74.13040 | 8003 ft | 161 kts | 195° |
| 2026-04-23 01:22 | 44.77017 | -74.13248 | 8004 ft | 160 kts | 195° |
| 2026-04-23 01:22 | 44.75910 | -74.13456 | 8006 ft | 161 kts | 195° |
| 2026-04-23 01:22 | 44.74800 | -74.13665 | 8002 ft | 161 kts | 195° |
| 2026-04-23 01:22 | 44.73695 | -74.13871 | 8002 ft | 159 kts | 195° |
| 2026-04-23 01:23 | 44.72597 | -74.14078 | 8004 ft | 160 kts | 195° |
| 2026-04-23 01:23 | 44.71473 | -74.14022 | 7997 ft | 164 kts | 179° |
| 2026-04-23 01:23 | 44.70340 | -74.13804 | 7998 ft | 165 kts | 179° |
| 2026-04-23 01:23 | 44.69203 | -74.13599 | 8000 ft | 165 kts | 179° |
| 2026-04-23 01:24 | 44.68061 | -74.13398 | 7995 ft | 165 kts | 179° |
| 2026-04-23 01:24 | 44.66919 | -74.13196 | 8001 ft | 166 kts | 179° |
| 2026-04-23 01:24 | 44.65775 | -74.12994 | 7991 ft | 165 kts | 179° |
| 2026-04-23 01:24 | 44.64650 | -74.12794 | 7987 ft | 163 kts | 179° |
| 2026-04-23 01:25 | 44.63525 | -74.12596 | 7997 ft | 164 kts | 179° |
| 2026-04-23 01:25 | 44.62389 | -74.12397 | 8000 ft | 165 kts | 179° |
| 2026-04-23 01:25 | 44.61255 | -74.12195 | 7996 ft | 164 kts | 179° |
| 2026-04-23 01:25 | 44.60123 | -74.11997 | 8001 ft | 164 kts | 179° |
| 2026-04-23 01:26 | 44.58985 | -74.11797 | 8000 ft | 165 kts | 179° |
| 2026-04-23 01:26 | 44.57842 | -74.11595 | 8000 ft | 165 kts | 179° |
| 2026-04-23 01:26 | 44.56699 | -74.11393 | 7996 ft | 165 kts | 179° |
| 2026-04-23 01:26 | 44.55562 | -74.11193 | 8002 ft | 166 kts | 179° |
| 2026-04-23 01:27 | 44.54426 | -74.10991 | 7998 ft | 163 kts | 180° |
| 2026-04-23 01:27 | 44.53300 | -74.10795 | 8000 ft | 163 kts | 179° |
| 2026-04-23 01:27 | 44.52169 | -74.10597 | 8001 ft | 164 kts | 179° |
| 2026-04-23 01:27 | 44.51030 | -74.10397 | 8001 ft | 165 kts | 179° |
| 2026-04-23 01:28 | 44.49890 | -74.10196 | 8002 ft | 165 kts | 179° |
| 2026-04-23 01:28 | 44.48746 | -74.09995 | 8003 ft | 166 kts | 179° |
| 2026-04-23 01:28 | 44.47597 | -74.09793 | 8005 ft | 167 kts | 179° |
| 2026-04-23 01:28 | 44.46443 | -74.09591 | 8004 ft | 167 kts | 179° |
| 2026-04-23 01:29 | 44.45298 | -74.09389 | 7993 ft | 166 kts | 179° |
| 2026-04-23 01:29 | 44.44156 | -74.09189 | 7992 ft | 165 kts | 179° |
| 2026-04-23 01:29 | 44.43019 | -74.08989 | 7992 ft | 164 kts | 179° |
| 2026-04-23 01:29 | 44.41886 | -74.08791 | 7991 ft | 164 kts | 179° |
| 2026-04-23 01:30 | 44.40753 | -74.08593 | 7993 ft | 164 kts | 179° |
| 2026-04-23 01:30 | 44.39627 | -74.08395 | 8001 ft | 163 kts | 180° |
| 2026-04-23 01:30 | 44.38501 | -74.08198 | 7999 ft | 163 kts | 180° |
| 2026-04-23 01:30 | 44.37375 | -74.08002 | 8000 ft | 163 kts | 180° |
| 2026-04-23 01:31 | 44.36249 | -74.07805 | 7998 ft | 162 kts | 180° |
| 2026-04-23 01:31 | 44.35129 | -74.07609 | 8003 ft | 162 kts | 180° |
| 2026-04-23 01:31 | 44.34003 | -74.07413 | 8006 ft | 164 kts | 180° |
| 2026-04-23 01:31 | 44.32868 | -74.07214 | 8006 ft | 164 kts | 180° |
| 2026-04-23 01:32 | 44.31734 | -74.07016 | 8008 ft | 165 kts | 180° |
| 2026-04-23 01:32 | 44.30599 | -74.06818 | 8005 ft | 164 kts | 180° |
| 2026-04-23 01:32 | 44.29469 | -74.06620 | 8007 ft | 163 kts | 180° |
| 2026-04-23 01:32 | 44.28345 | -74.06424 | 8008 ft | 163 kts | 180° |
| 2026-04-23 01:33 | 44.27216 | -74.06228 | 8022 ft | 163 kts | 179° |
| 2026-04-23 01:33 | 44.26103 | -74.06034 | 8021 ft | 161 kts | 180° |
| 2026-04-23 01:33 | 44.24993 | -74.05839 | 8023 ft | 160 kts | 180° |
| 2026-04-23 01:33 | 44.23883 | -74.05647 | 8024 ft | 161 kts | 180° |
| 2026-04-23 01:34 | 44.22766 | -74.05453 | 8025 ft | 162 kts | 180° |
| 2026-04-23 01:34 | 44.21644 | -74.05258 | 8026 ft | 162 kts | 180° |
| 2026-04-23 01:34 | 44.20519 | -74.05062 | 8032 ft | 164 kts | 180° |
| 2026-04-23 01:34 | 44.19379 | -74.04864 | 8033 ft | 166 kts | 180° |
| 2026-04-23 01:35 | 44.18237 | -74.04663 | 8033 ft | 165 kts | 180° |
| 2026-04-23 01:35 | 44.17099 | -74.04466 | 8024 ft | 162 kts | 180° |
| 2026-04-23 01:35 | 44.15969 | -74.04272 | 8032 ft | 166 kts | 180° |
| 2026-04-23 01:35 | 44.14819 | -74.04072 | 8026 ft | 166 kts | 180° |
| 2026-04-23 01:36 | 44.13678 | -74.03873 | 8026 ft | 164 kts | 180° |
| 2026-04-23 01:36 | 44.12540 | -74.03677 | 8030 ft | 165 kts | 180° |
| 2026-04-23 01:36 | 44.11391 | -74.03476 | 8025 ft | 167 kts | 180° |
| 2026-04-23 01:36 | 44.10244 | -74.03276 | 8024 ft | 165 kts | 180° |
| 2026-04-23 01:37 | 44.09110 | -74.03080 | 8023 ft | 164 kts | 180° |
| 2026-04-23 01:37 | 44.07978 | -74.02886 | 8022 ft | 164 kts | 180° |
| 2026-04-23 01:37 | 44.06846 | -74.02690 | 8018 ft | 163 kts | 180° |
| 2026-04-23 01:37 | 44.05728 | -74.02495 | 8014 ft | 161 kts | 180° |
| 2026-04-23 01:38 | 44.04623 | -74.02303 | 8013 ft | 160 kts | 180° |
| 2026-04-23 01:38 | 44.03521 | -74.02113 | 8012 ft | 159 kts | 180° |
| 2026-04-23 01:38 | 44.02421 | -74.01924 | 8009 ft | 159 kts | 180° |
| 2026-04-23 01:38 | 44.01324 | -74.01734 | 8009 ft | 159 kts | 180° |
| 2026-04-23 01:39 | 44.00234 | -74.01546 | 8009 ft | 158 kts | 181° |
| 2026-04-23 01:39 | 43.99153 | -74.01358 | 8012 ft | 155 kts | 181° |
| 2026-04-23 01:39 | 43.98080 | -74.01173 | 8013 ft | 155 kts | 181° |
| 2026-04-23 01:39 | 43.97010 | -74.00989 | 8016 ft | 155 kts | 181° |
| 2026-04-23 01:40 | 43.95945 | -74.00804 | 8014 ft | 153 kts | 181° |
| 2026-04-23 01:40 | 43.94902 | -74.00624 | 8015 ft | 150 kts | 181° |
| 2026-04-23 01:40 | 43.93856 | -74.00445 | 8010 ft | 152 kts | 181° |
| 2026-04-23 01:40 | 43.92813 | -74.00265 | 8015 ft | 151 kts | 181° |
| 2026-04-23 01:41 | 43.91772 | -74.00085 | 8009 ft | 150 kts | 181° |
| 2026-04-23 01:41 | 43.90745 | -73.99908 | 8010 ft | 148 kts | 181° |
| 2026-04-23 01:41 | 43.89721 | -73.99732 | 8010 ft | 149 kts | 181° |
| 2026-04-23 01:41 | 43.88695 | -73.99556 | 8010 ft | 149 kts | 181° |
| 2026-04-23 01:42 | 43.87665 | -73.99378 | 8015 ft | 149 kts | 182° |
| 2026-04-23 01:42 | 43.86635 | -73.99202 | 8021 ft | 149 kts | 181° |
| 2026-04-23 01:42 | 43.85608 | -73.99025 | 8021 ft | 149 kts | 182° |
| 2026-04-23 01:42 | 43.84574 | -73.98848 | 8022 ft | 151 kts | 181° |
| 2026-04-23 01:43 | 43.83523 | -73.98668 | 8018 ft | 153 kts | 181° |
| 2026-04-23 01:43 | 43.82488 | -73.98488 | 8018 ft | 151 kts | 182° |
| 2026-04-23 01:43 | 43.81401 | -73.98308 | 7793 ft | 166 kts | 181° |
| 2026-04-23 01:43 | 43.80235 | -73.98108 | 7710 ft | 167 kts | 179° |
| 2026-04-23 01:44 | 43.79080 | -73.97906 | 7585 ft | 172 kts | 180° |
| 2026-04-23 01:44 | 43.77871 | -73.97702 | 7369 ft | 178 kts | 180° |
| 2026-04-23 01:44 | 43.76627 | -73.97488 | 7153 ft | 181 kts | 179° |
| 2026-04-23 01:44 | 43.75369 | -73.97270 | 6933 ft | 183 kts | 179° |
| 2026-04-23 01:45 | 43.74114 | -73.97054 | 6713 ft | 181 kts | 179° |
| 2026-04-23 01:45 | 43.72860 | -73.96839 | 6497 ft | 181 kts | 179° |
| 2026-04-23 01:45 | 43.71614 | -73.96626 | 6258 ft | 180 kts | 179° |
| 2026-04-23 01:45 | 43.70373 | -73.96414 | 6046 ft | 178 kts | 178° |
| 2026-04-23 01:46 | 43.69178 | -73.96207 | 6032 ft | 168 kts | 179° |
| 2026-04-23 01:46 | 43.68036 | -73.96011 | 6027 ft | 164 kts | 179° |
| 2026-04-23 01:46 | 43.66913 | -73.95822 | 6021 ft | 162 kts | 179° |
| 2026-04-23 01:46 | 43.65806 | -73.95633 | 6016 ft | 159 kts | 179° |
| 2026-04-23 01:47 | 43.64707 | -73.95446 | 6018 ft | 159 kts | 179° |
| 2026-04-23 01:47 | 43.63612 | -73.95259 | 6018 ft | 158 kts | 179° |
| 2026-04-23 01:47 | 43.62523 | -73.95074 | 6024 ft | 157 kts | 179° |
| 2026-04-23 01:47 | 43.61434 | -73.94888 | 6029 ft | 158 kts | 179° |
| 2026-04-23 01:48 | 43.60341 | -73.94702 | 6023 ft | 159 kts | 179° |
| 2026-04-23 01:48 | 43.59246 | -73.94515 | 6028 ft | 159 kts | 179° |
| 2026-04-23 01:48 | 43.58155 | -73.94329 | 6029 ft | 158 kts | 179° |
| 2026-04-23 01:48 | 43.57066 | -73.94144 | 6033 ft | 158 kts | 179° |
| 2026-04-23 01:49 | 43.55974 | -73.93958 | 6039 ft | 157 kts | 178° |
| 2026-04-23 01:49 | 43.54899 | -73.93773 | 6010 ft | 157 kts | 179° |
| 2026-04-23 01:49 | 43.53820 | -73.93592 | 6008 ft | 155 kts | 179° |
| 2026-04-23 01:49 | 43.52744 | -73.93409 | 6011 ft | 156 kts | 179° |
| 2026-04-23 01:50 | 43.51664 | -73.93226 | 6014 ft | 157 kts | 179° |
| 2026-04-23 01:50 | 43.50573 | -73.93041 | 6014 ft | 158 kts | 179° |
| 2026-04-23 01:50 | 43.49490 | -73.92855 | 6014 ft | 157 kts | 179° |
| 2026-04-23 01:50 | 43.48411 | -73.92673 | 6008 ft | 155 kts | 178° |
| 2026-04-23 01:51 | 43.47373 | -73.92495 | 6009 ft | 149 kts | 178° |
| 2026-04-23 01:51 | 43.46330 | -73.92322 | 6008 ft | 155 kts | 179° |
| 2026-04-23 01:51 | 43.45245 | -73.92137 | 6012 ft | 158 kts | 179° |
| 2026-04-23 01:51 | 43.44153 | -73.91951 | 6018 ft | 159 kts | 179° |
| 2026-04-23 01:52 | 43.43045 | -73.91764 | 6033 ft | 161 kts | 179° |
| 2026-04-23 01:52 | 43.41925 | -73.91574 | 6026 ft | 162 kts | 179° |
| 2026-04-23 01:52 | 43.40811 | -73.91385 | 6022 ft | 162 kts | 179° |
| 2026-04-23 01:52 | 43.39699 | -73.91197 | 6017 ft | 160 kts | 179° |
| 2026-04-23 01:53 | 43.38592 | -73.91009 | 6021 ft | 161 kts | 179° |
| 2026-04-23 01:53 | 43.37479 | -73.90821 | 6018 ft | 161 kts | 179° |
| 2026-04-23 01:53 | 43.36369 | -73.90633 | 6022 ft | 161 kts | 179° |
| 2026-04-23 01:53 | 43.35258 | -73.90446 | 6021 ft | 161 kts | 179° |
| 2026-04-23 01:54 | 43.34141 | -73.90257 | 6023 ft | 162 kts | 179° |
| 2026-04-23 01:54 | 43.33020 | -73.90067 | 6020 ft | 162 kts | 179° |
| 2026-04-23 01:54 | 43.31904 | -73.89880 | 6024 ft | 162 kts | 179° |
| 2026-04-23 01:54 | 43.30788 | -73.89691 | 6019 ft | 161 kts | 179° |
| 2026-04-23 01:55 | 43.29673 | -73.89502 | 6016 ft | 161 kts | 179° |
| 2026-04-23 01:55 | 43.28560 | -73.89315 | 6016 ft | 161 kts | 179° |
| 2026-04-23 01:55 | 43.27445 | -73.89127 | 6010 ft | 161 kts | 180° |
| 2026-04-23 01:55 | 43.26330 | -73.88939 | 6009 ft | 161 kts | 180° |
| 2026-04-23 01:56 | 43.25212 | -73.88751 | 6010 ft | 162 kts | 180° |
| 2026-04-23 01:56 | 43.24088 | -73.88562 | 6009 ft | 163 kts | 179° |
| 2026-04-23 01:56 | 43.22971 | -73.88373 | 6012 ft | 162 kts | 180° |
| 2026-04-23 01:56 | 43.21867 | -73.88187 | 6009 ft | 162 kts | 180° |
| 2026-04-23 01:57 | 43.20741 | -73.87997 | 6008 ft | 160 kts | 180° |
| 2026-04-23 01:57 | 43.19633 | -73.87812 | 6007 ft | 161 kts | 180° |
| 2026-04-23 01:57 | 43.18522 | -73.87626 | 6008 ft | 161 kts | 180° |
| 2026-04-23 01:57 | 43.17423 | -73.87365 | 5927 ft | 158 kts | 167° |
| 2026-04-23 01:58 | 43.16493 | -73.86683 | 5492 ft | 151 kts | 150° |
| 2026-04-23 01:58 | 43.15626 | -73.85902 | 5047 ft | 146 kts | 149° |
| 2026-04-23 01:58 | 43.14781 | -73.85165 | 4639 ft | 141 kts | 150° |
| 2026-04-23 01:58 | 43.13988 | -73.84451 | 4311 ft | 134 kts | 149° |
| 2026-04-23 01:59 | 43.13227 | -73.83746 | 3955 ft | 130 kts | 149° |
| 2026-04-23 01:59 | 43.12529 | -73.83088 | 3759 ft | 116 kts | 149° |
| 2026-04-23 01:59 | 43.11908 | -73.82483 | 3622 ft | 103 kts | 149° |
| 2026-04-23 01:59 | 43.11341 | -73.81973 | 3307 ft | 94 kts | 157° |
| 2026-04-23 02:00 | 43.10745 | -73.81687 | 2943 ft | 88 kts | 175° |
| 2026-04-23 02:00 | 43.10158 | -73.81596 | 2601 ft | 80 kts | 181° |
| 2026-04-23 02:00 | 43.09629 | -73.81673 | 2275 ft | 74 kts | 197° |
| 2026-04-23 02:00 | 43.09141 | -73.81924 | 1992 ft | 76 kts | 205° |
| 2026-04-23 02:01 | 43.08699 | -73.82270 | 1712 ft | 72 kts | 211° |
| 2026-04-23 02:01 | 43.08287 | -73.82658 | 1468 ft | 75 kts | 214° |
| 2026-04-23 02:01 | 43.07874 | -73.83107 | 1278 ft | 76 kts | 217° |
| 2026-04-23 02:01 | 43.07463 | -73.83557 | 1108 ft | 76 kts | 219° |
| 2026-04-23 02:02 | 43.07056 | -73.84000 | 962 ft | 73 kts | 214° |
| 2026-04-23 02:02 | 43.06673 | -73.84435 | 836 ft | 72 kts | 213° |
| 2026-04-23 02:02 | 43.06285 | -73.84862 | 704 ft | 71 kts | 218° |
| 2026-04-23 02:02 | 43.05897 | -73.85272 | 577 ft | 70 kts | 214° |
| 2026-04-23 02:03 | 43.05515 | -73.85685 | 450 ft | 68 kts | 215° |
| 2026-04-23 02:03 | 43.05198 | -73.86026 | 442 ft | 48 kts | 218° |
| 2026-04-23 02:03 | 43.05034 | -73.86203 | 442 ft | 43 kts | 218° |
| 2026-04-23 02:03 | 43.04828 | -73.86427 | 439 ft | 31 kts | 219° |
| 2026-04-23 02:04 | 43.04668 | -73.86597 | 443 ft | 27 kts | 216° |
| 2026-04-23 02:04 | 43.04569 | -73.86703 | 442 ft | 12 kts | 207° |
| 2026-04-23 02:04 | 43.04506 | -73.86668 | 444 ft | 11 kts | 123° |
| 2026-04-23 02:04 | 43.04516 | -73.86579 | 440 ft | 11 kts | 35° |
| 2026-04-23 02:05 | 43.04572 | -73.86509 | 439 ft | 11 kts | 70° |
| 2026-04-23 02:05 | 43.04579 | -73.86405 | 442 ft | 11 kts | 81° |
| 2026-04-23 02:05 | 43.04599 | -73.86308 | 437 ft | 11 kts | 39° |
| 2026-04-23 02:05 | 43.04660 | -73.86244 | 438 ft | 11 kts | 39° |
| 2026-04-23 02:06 | 43.04691 | -73.86181 | 440 ft | 7 kts | 158° |
| 2026-04-23 02:06 | 43.04669 | -73.86173 | 443 ft | 1 kts | 355° |